Time;durP1;ratioP1;P1;durP2;ratioP2;P2;SDS_P1;SDS_P2;PMS_P1;PMS_P2;Temp;Humidity;BMP_temperature;BMP_pressure;BME280_temperature;BME280_humidity;BME280_pressure;Samples;Min_cycle;Max_cycle;Signal;HPM_P1;HPM_P2
2022/06/18 00:03:53;;;;;;;;;;;21.90;5.30;;;;;;10243290;28;85376;-50
2022/06/18 00:08:54;;;;;;;;;;;21.90;1.00;;;;;;10242931;28;84323;-51
2022/06/18 00:13:54;;;;;;;;;;;21.90;1.00;;;;;;10248004;28;85051;-52
2022/06/18 00:18:55;;;;;;;;;;;21.90;1.00;;;;;;10246186;28;84875;-50
2022/06/18 00:28:59;;;;;;;;;;;21.90;1.00;;;;;;10165643;28;84998;-46
2022/06/18 00:33:59;;;;;;;;;;;21.90;1.00;;;;;;10183834;28;87022;-51
2022/06/18 00:39:00;;;;;;;;;;;21.80;99.90;;;;;;10167334;28;85061;-52
2022/06/18 00:44:06;;;;;;;;;;;21.70;99.90;;;;;;10170040;28;84711;-52
2022/06/18 00:49:30;;;;;;;;;;;21.70;1.00;;;;;;10169416;28;84982;-46
2022/06/18 00:54:39;;;;;;;;;;;21.70;1.00;;;;;;10161050;28;87277;-48
2022/06/18 00:59:53;;;;;;;;;;;21.60;1.00;;;;;;10166991;28;85875;-48
2022/06/18 01:04:54;;;;;;;;;;;21.50;1.00;;;;;;10166559;28;86135;-47
2022/06/18 01:09:55;;;;;;;;;;;21.40;54.10;;;;;;10164006;28;86947;-49
2022/06/18 01:15:04;;;;;;;;;;;21.40;99.90;;;;;;10166049;28;85268;-49
2022/06/18 01:20:09;;;;;;;;;;;21.40;99.90;;;;;;10165968;28;86452;-47
2022/06/18 01:25:10;;;;;;;;;;;21.40;99.90;;;;;;10147981;28;86364;-47
2022/06/18 01:30:16;;;;;;;;;;;21.40;99.90;;;;;;10164929;28;85932;-47
2022/06/18 01:35:20;;;;;;;;;;;21.40;38.40;;;;;;10164816;28;86033;-48
2022/06/18 01:40:42;;;;;;;;;;;21.40;1.00;;;;;;10166784;28;84041;-50
2022/06/18 01:45:51;;;;;;;;;;;21.40;1.00;;;;;;10127601;28;86348;-51
2022/06/18 01:51:00;;;;;;;;;;;21.40;1.00;;;;;;10126028;28;85828;-52
2022/06/18 01:56:02;;;;;;;;;;;21.40;1.00;;;;;;10125178;28;86799;-48
2022/06/18 02:01:14;;;;;;;;;;;21.40;83.20;;;;;;10127085;28;86281;-49
2022/06/18 02:06:15;;;;;;;;;;;21.30;99.90;;;;;;10126346;28;86004;-49
2022/06/18 02:11:17;;;;;;;;;;;21.20;99.90;;;;;;10125913;28;84937;-47
2022/06/18 02:16:21;;;;;;;;;;;21.20;1.00;;;;;;10126185;28;84766;-47
2022/06/18 02:21:22;;;;;;;;;;;21.10;1.00;;;;;;10145601;28;85894;-50
2022/06/18 02:26:25;;;;;;;;;;;21.10;1.00;;;;;;10163636;28;86790;-52
2022/06/18 02:31:30;;;;;;;;;;;21.00;1.00;;;;;;10165531;28;84099;-46
2022/06/18 02:36:32;;;;;;;;;;;21.00;1.00;;;;;;10150023;28;84877;-49
2022/06/18 02:41:34;;;;;;;;;;;21.00;68.40;;;;;;10123960;28;85000;-49
2022/06/18 02:46:35;;;;;;;;;;;21.00;99.90;;;;;;10126631;28;84259;-49
2022/06/18 02:51:36;;;;;;;;;;;20.90;99.90;;;;;;10178715;28;86506;-49
2022/06/18 02:56:38;;;;;;;;;;;20.90;1.00;;;;;;10169206;28;86099;-48
2022/06/18 03:01:40;;;;;;;;;;;20.80;1.00;;;;;;10200229;28;85640;-46
2022/06/18 03:06:40;;;;;;;;;;;20.70;1.00;;;;;;10202745;28;84854;-49
2022/06/18 03:17:00;;;;;;;;;;;20.70;1.00;;;;;;10143729;28;86923;-50
2022/06/18 03:22:07;;;;;;;;;;;20.60;99.90;;;;;;10187040;28;86017;-48
2022/06/18 03:27:12;;;;;;;;;;;20.60;99.90;;;;;;10165569;28;86421;-48
2022/06/18 03:32:16;;;;;;;;;;;20.60;99.90;;;;;;10194725;28;86053;-47
2022/06/18 03:37:17;;;;;;;;;;;20.60;99.90;;;;;;10208800;28;85257;-47
2022/06/18 03:42:17;;;;;;;;;;;20.60;99.90;;;;;;10195111;28;85974;-47
2022/06/18 03:47:18;;;;;;;;;;;20.60;99.90;;;;;;10168486;28;85982;-48
2022/06/18 03:52:19;;;;;;;;;;;20.60;1.00;;;;;;10168188;28;85913;-51
2022/06/18 03:57:20;;;;;;;;;;;20.60;1.00;;;;;;10167267;28;85647;-47
2022/06/18 04:02:21;;;;;;;;;;;20.60;1.00;;;;;;10168217;28;85659;-51
2022/06/18 04:07:22;;;;;;;;;;;20.60;1.00;;;;;;10169078;28;86019;-47
2022/06/18 04:12:33;;;;;;;;;;;20.60;1.00;;;;;;10171704;28;87154;-48
2022/06/18 04:17:45;;;;;;;;;;;20.80;1.00;;;;;;10188393;28;85954;-48
2022/06/18 04:22:47;;;;;;;;;;;20.90;1.00;;;;;;10198932;28;86833;-48
2022/06/18 04:27:49;;;;;;;;;;;21.00;1.00;;;;;;10206657;28;86818;-48
2022/06/18 04:32:52;;;;;;;;;;;21.00;1.00;;;;;;10207195;28;86720;-50
2022/06/18 04:37:53;;;;;;;;;;;21.10;1.00;;;;;;10181557;28;85958;-49
2022/06/18 04:43:26;;;;;;;;;;;21.20;1.00;;;;;;10166463;28;84049;-46
2022/06/18 04:48:27;;;;;;;;;;;21.30;99.90;;;;;;10167086;28;87131;-50
2022/06/18 04:53:28;;;;;;;;;;;21.40;99.90;;;;;;10166316;28;85982;-48
2022/06/18 04:58:33;;;;;;;;;;;21.50;99.90;;;;;;10167041;28;85866;-46
2022/06/18 05:03:34;;;;;;;;;;;21.70;99.90;;;;;;10166714;28;85832;-48
2022/06/18 05:08:45;;;;;;;;;;;21.80;99.90;;;;;;10165910;28;84780;-48
2022/06/18 05:14:15;;;;;;;;;;;21.90;3.70;;;;;;10148025;28;84369;-50
2022/06/18 05:19:24;;;;;;;;;;;22.10;1.00;;;;;;10156880;28;84679;-46
2022/06/18 05:24:25;;;;;;;;;;;22.20;1.00;;;;;;10143242;28;87022;-48
2022/06/18 05:29:26;;;;;;;;;;;22.30;1.00;;;;;;10146636;28;84767;-48
2022/06/18 05:34:28;;;;;;;;;;;22.50;1.00;;;;;;10143631;28;85563;-49
2022/06/18 05:39:29;;;;;;;;;;;22.60;1.00;;;;;;10145471;28;85962;-45
2022/06/18 05:44:29;;;;;;;;;;;22.70;1.00;;;;;;10153572;28;87244;-47
2022/06/18 05:49:30;;;;;;;;;;;22.90;99.90;;;;;;10173281;28;86897;-45
2022/06/18 05:54:31;;;;;;;;;;;23.10;99.90;;;;;;10198339;28;85792;-47
2022/06/18 05:59:42;;;;;;;;;;;23.30;99.90;;;;;;10182312;28;84113;-46
2022/06/18 06:04:44;;;;;;;;;;;23.50;1.00;;;;;;10162482;28;86050;-47
2022/06/18 06:15:07;;;;;;;;;;;23.90;1.00;;;;;;10164726;28;85669;-48
2022/06/18 06:20:17;;;;;;;;;;;24.20;99.90;;;;;;10151256;28;86198;-47
2022/06/18 06:25:18;;;;;;;;;;;24.50;1.00;;;;;;10172287;22;84888;-51
2022/06/18 06:30:18;;;;;;;;;;;24.70;99.90;;;;;;10246100;28;84190;-51
2022/06/18 06:35:19;;;;;;;;;;;24.80;99.90;;;;;;10245212;28;84168;-48
2022/06/18 06:40:19;;;;;;;;;;;25.00;1.00;;;;;;10245105;28;84893;-53
2022/06/18 06:45:22;;;;;;;;;;;25.20;1.00;;;;;;10242803;28;84311;-52
2022/06/18 06:50:23;;;;;;;;;;;25.20;1.00;;;;;;10236483;28;84835;-51
2022/06/18 07:00:55;;;;;;;;;;;25.50;99.90;;;;;;10246830;28;84917;-58
2022/06/18 07:05:56;;;;;;;;;;;25.90;23.50;;;;;;10248105;28;84085;-57
2022/06/18 07:10:57;;;;;;;;;;;26.20;99.90;;;;;;10246097;28;84795;-54
2022/06/18 07:15:58;;;;;;;;;;;26.20;1.00;;;;;;10244760;28;84895;-59
2022/06/18 07:20:59;;;;;;;;;;;26.40;1.00;;;;;;10246870;28;84386;-58
2022/06/18 07:26:00;;;;;;;;;;;26.80;1.00;;;;;;10243283;28;84314;-51
2022/06/18 07:31:00;;;;;;;;;;;27.00;1.00;;;;;;10235439;28;85044;-50
2022/06/18 07:36:01;;;;;;;;;;;27.40;1.00;;;;;;10248779;28;84220;-50
2022/06/18 07:41:02;;;;;;;;;;;27.90;1.00;;;;;;10249725;28;85195;-50
2022/06/18 07:46:03;;;;;;;;;;;28.10;1.00;;;;;;10249279;28;84853;-53
2022/06/18 07:51:05;;;;;;;;;;;28.50;1.00;;;;;;10248480;28;84535;-47
2022/06/18 07:56:07;;;;;;;;;;;29.10;99.90;;;;;;10247555;28;85970;-50
2022/06/18 08:01:08;;;;;;;;;;;29.70;1.00;;;;;;10229832;28;85872;-53
2022/06/18 08:06:10;;;;;;;;;;;30.20;1.00;;;;;;10244113;28;84657;-51
2022/06/18 08:11:11;;;;;;;;;;;30.50;1.00;;;;;;10248474;28;84961;-53
2022/06/18 08:16:13;;;;;;;;;;;30.90;99.90;;;;;;10245871;28;84136;-52
2022/06/18 08:21:32;;;;;;;;;;;31.50;99.90;;;;;;10247503;28;84257;-48
2022/06/18 08:26:33;;;;;;;;;;;31.90;99.90;;;;;;10245369;28;84345;-48
2022/06/18 08:31:34;;;;;;;4.60;3.40;;;31.90;13.30;;;;;;10247848;28;84947;-49
2022/06/18 08:36:36;;;;;;;;;;;32.20;1.00;;;;;;10245692;28;84224;-52
2022/06/18 08:41:39;;;;;;;;;;;32.80;1.00;;;;;;10248402;28;84778;-51
2022/06/18 08:46:52;;;;;;;;;;;32.90;1.00;;;;;;10247726;28;84976;-54
2022/06/18 08:52:32;;;;;;;4.35;3.05;;;33.50;1.00;;;;;;10244365;28;84848;-51
2022/06/18 08:57:49;;;;;;;;;;;33.50;1.00;;;;;;10244747;28;84933;-53
2022/06/18 09:03:09;;;;;;;3.80;3.00;;;33.70;1.00;;;;;;10247145;28;84136;-51
2022/06/18 09:08:34;;;;;;;4.07;3.23;;;33.60;1.00;;;;;;10261112;28;85988;-51
2022/06/18 09:13:43;;;;;;;4.25;3.30;;;33.80;1.00;;;;;;10244948;28;85122;-53
2022/06/18 09:18:52;;;;;;;;;;;33.70;1.00;;;;;;10246837;28;84113;-56
2022/06/18 09:24:04;;;;;;;4.03;3.45;;;34.10;1.00;;;;;;10244913;28;85141;-49
2022/06/18 09:29:20;;;;;;;4.45;3.25;;;35.10;1.00;;;;;;10245488;28;84027;-50
2022/06/18 09:34:24;;;;;;;3.90;3.50;;;35.10;1.00;;;;;;10244809;28;84182;-52
2022/06/18 09:39:30;;;;;;;3.50;3.10;;;35.10;1.00;;;;;;10244535;28;84951;-53
2022/06/18 09:44:40;;;;;;;3.90;3.00;;;35.30;1.00;;;;;;10241300;28;84907;-50
2022/06/18 09:49:45;;;;;;;4.55;2.92;;;35.90;1.00;;;;;;10243836;28;84495;-50
2022/06/18 09:54:53;;;;;;;3.45;3.10;;;36.60;1.00;;;;;;10240586;28;84216;-51
2022/06/18 09:59:54;;;;;;;5.07;3.55;;;36.50;1.00;;;;;;10242205;28;84181;-50
2022/06/18 10:10:25;;;;;;;6.15;3.22;;;36.70;1.00;;;;;;10241705;28;84460;-53
2022/06/18 10:15:28;;;;;;;3.33;3.03;;;37.00;1.00;;;;;;10242679;28;85010;-50
2022/06/18 10:21:04;;;;;;;4.75;3.60;;;37.10;1.00;;;;;;10240873;28;85602;-55
2022/06/18 10:26:23;;;;;;;4.80;3.10;;;37.70;1.00;;;;;;10217390;28;85190;-49
2022/06/18 10:31:38;;;;;;;4.05;3.40;;;37.70;1.00;;;;;;10239128;28;84914;-52
2022/06/18 10:36:54;;;;;;;4.18;3.30;;;37.70;1.00;;;;;;10238917;28;84545;-51
2022/06/18 10:42:13;;;;;;;5.20;3.22;;;37.70;1.00;;;;;;10242426;28;83989;-53
2022/06/18 10:47:17;;;;;;;5.03;3.22;;;38.20;1.00;;;;;;10242390;28;84220;-51
2022/06/18 10:52:23;;;;;;;5.57;3.40;;;38.80;99.90;;;;;;10240499;28;84890;-53
2022/06/18 10:57:26;;;;;;;4.53;3.10;;;37.90;99.90;;;;;;10240972;28;84945;-52
2022/06/18 11:02:37;;;;;;;3.83;3.47;;;37.70;99.90;;;;;;10242386;28;85146;-51
2022/06/18 11:07:38;;;;;;;4.35;3.13;;;37.80;99.90;;;;;;10241867;28;85082;-56
2022/06/18 11:12:39;;;;;;;4.50;3.60;;;38.30;99.90;;;;;;10239568;28;85412;-52
2022/06/18 11:17:44;;;;;;;4.65;3.53;;;39.20;99.90;;;;;;10240745;28;86364;-55
2022/06/18 11:22:49;;;;;;;4.55;2.97;;;40.10;99.90;;;;;;10253436;28;84961;-52
2022/06/18 11:27:52;;;;;;;6.47;3.63;;;40.10;99.90;;;;;;10238927;28;84993;-51
2022/06/18 11:32:53;;;;;;;5.68;3.40;;;39.90;99.90;;;;;;10226285;28;83987;-55
2022/06/18 11:37:59;;;;;;;5.32;3.78;;;39.50;99.90;;;;;;10224008;28;85094;-52
2022/06/18 11:43:11;;;;;;;6.75;3.40;;;39.20;99.90;;;;;;10225040;28;85088;-48
2022/06/18 11:48:38;;;;;;;3.83;3.40;;;39.60;99.90;;;;;;10259485;28;84297;-55
2022/06/18 11:54:06;;;;;;;5.13;3.40;;;39.40;99.90;;;;;;10248381;28;84121;-48
2022/06/18 11:59:22;;;;;;;4.13;3.05;;;39.40;99.90;;;;;;10242250;28;84011;-49
2022/06/18 12:04:25;;;;;;;4.88;2.92;;;39.30;99.90;;;;;;10246058;28;84187;-53
2022/06/18 12:09:28;;;;;;;3.95;3.17;;;39.40;99.90;;;;;;10246196;28;84144;-50
2022/06/18 12:14:37;;;;;;;5.60;3.00;;;38.90;99.90;;;;;;10233652;28;84950;-51
2022/06/18 12:20:16;;;;;;;8.10;3.28;;;39.40;99.90;;;;;;10219678;28;84237;-50
2022/06/18 12:25:42;;;;;;;3.72;2.97;;;39.50;99.90;;;;;;10246443;28;84364;-54
2022/06/18 12:31:12;;;;;;;5.05;3.30;;;38.80;99.90;;;;;;10247491;28;84298;-53
2022/06/18 12:36:23;;;;;;;5.90;3.10;;;38.70;99.90;;;;;;10245085;28;84994;-51
2022/06/18 12:41:50;;;;;;;5.97;2.97;;;38.80;99.90;;;;;;10247530;28;84973;-54
2022/06/18 12:47:24;;;;;;;4.70;3.10;;;39.50;99.90;;;;;;10249089;28;85385;-49
2022/06/18 12:52:43;;;;;;;5.43;3.35;;;39.50;99.90;;;;;;10247972;28;84824;-51
2022/06/18 12:58:02;;;;;;;3.88;3.20;;;39.80;99.90;;;;;;10247683;28;84164;-52
2022/06/18 13:03:30;;;;;;;4.43;3.20;;;40.10;99.90;;;;;;10259970;28;84882;-51
2022/06/18 13:09:00;;;;;;;4.80;3.28;;;39.70;99.90;;;;;;10244634;28;84974;-53
2022/06/18 13:14:00;;;;;;;4.35;3.10;;;40.40;99.90;;;;;;10253334;28;85191;-55
2022/06/18 13:19:11;;;;;;;5.88;3.63;;;39.40;99.90;;;;;;10236760;28;84891;-57
2022/06/18 13:29:35;;;;;;;3.92;3.08;;;39.50;99.90;;;;;;10240096;28;84162;-54
2022/06/18 13:35:17;;;;;;;6.03;3.17;;;39.10;99.90;;;;;;10245618;28;84467;-55
2022/06/18 13:40:28;;;;;;;7.80;3.67;;;39.40;99.90;;;;;;10240103;28;84745;-51
2022/06/18 13:45:41;;;;;;;4.43;3.08;;;38.60;99.90;;;;;;10237753;28;84265;-57
2022/06/18 13:50:45;;;;;;;5.18;2.78;;;38.00;99.90;;;;;;10247718;28;84323;-52
2022/06/18 13:55:46;;;;;;;5.90;2.95;;;37.70;99.90;;;;;;10245707;28;84957;-53
2022/06/18 14:00:48;;;;;;;6.35;3.00;;;37.40;99.90;;;;;;10238069;28;84958;-53
2022/06/18 14:05:57;;;;;;;6.72;3.35;;;37.30;99.90;;;;;;10230025;28;84321;-50
2022/06/18 14:11:01;;;;;;;3.70;2.90;;;36.30;99.90;;;;;;10218375;28;84504;-51
2022/06/18 14:16:05;;;;;;;5.40;3.63;;;36.00;99.90;;;;;;10219081;28;84332;-53
2022/06/18 14:21:09;;;;;;;6.03;3.03;;;35.40;99.90;;;;;;10232370;28;84465;-55
2022/06/18 14:26:14;;;;;;;4.38;2.60;;;35.10;99.90;;;;;;10246270;28;84971;-56
2022/06/18 14:31:29;;;;;;;7.03;3.22;;;35.10;99.90;;;;;;10260353;28;84943;-53
2022/06/18 14:36:34;;;;;;;4.82;3.00;;;34.80;99.90;;;;;;10241490;28;84899;-55
2022/06/18 14:41:37;;;;;;;7.50;3.33;;;34.80;99.90;;;;;;10236734;28;85855;-51
2022/06/18 14:47:15;;;;;;;8.50;3.55;;;34.80;99.90;;;;;;10244262;28;84673;-51
2022/06/18 14:52:26;;;;;;;5.88;3.40;;;34.70;99.90;;;;;;10240837;28;84413;-51
2022/06/18 14:58:17;;;;;;;4.78;3.58;;;34.40;99.90;;;;;;10231607;28;84814;-49
2022/06/18 15:03:27;;;;;;;5.55;3.55;;;34.20;99.90;;;;;;10126488;28;84221;-53
2022/06/18 15:08:28;;;;;;;5.07;3.30;;;34.30;99.90;;;;;;10242903;28;85070;-50
2022/06/18 15:13:38;;;;;;;5.43;3.70;;;34.00;99.90;;;;;;10242740;28;84101;-52
2022/06/18 15:18:54;;;;;;;5.43;3.10;;;34.00;99.90;;;;;;10248788;28;84098;-55
2022/06/18 15:29:29;;;;;;;4.18;3.55;;;33.60;99.90;;;;;;10229614;28;85021;-52
2022/06/18 15:34:30;;;;;;;6.40;4.13;;;33.50;99.90;;;;;;10248503;28;84258;-50
2022/06/18 15:39:33;;;;;;;5.40;3.38;;;33.30;99.90;;;;;;10251272;28;85191;-48
2022/06/18 15:44:35;;;;;;;5.55;3.63;;;33.20;99.90;;;;;;10249397;28;84179;-52
2022/06/18 15:49:41;;;;;;;4.30;3.38;;;33.20;99.90;;;;;;10248047;28;84087;-50
2022/06/18 15:54:45;;;;;;;6.80;3.72;;;33.10;99.90;;;;;;10249431;28;84167;-55
2022/06/18 15:59:51;;;;;;;6.85;3.35;;;32.90;99.90;;;;;;10241457;28;84235;-51
2022/06/18 16:04:52;;;;;;;4.65;3.75;;;32.80;99.90;;;;;;10210684;28;85098;-52
2022/06/18 16:10:02;;;;;;;5.07;3.75;;;32.70;99.90;;;;;;10209057;28;84130;-52
2022/06/18 16:15:28;;;;;;;8.13;3.78;;;32.60;99.90;;;;;;10209912;28;84932;-54
2022/06/18 16:20:31;;;;;;;6.60;4.22;;;32.40;1.00;;;;;;10221687;28;85086;-54
2022/06/18 16:25:39;;;;;;;6.05;3.50;;;32.50;1.00;;;;;;10248234;28;84153;-55
2022/06/18 16:30:40;;;;;;;4.65;3.50;;;32.50;1.00;;;;;;10250711;28;85101;-50
2022/06/18 16:36:04;;;;;;;5.38;3.78;;;32.40;1.00;;;;;;10247822;28;84909;-52
2022/06/18 16:41:10;;;;;;;6.07;3.60;;;32.40;1.00;;;;;;10250422;28;84025;-48
2022/06/18 16:46:23;;;;;;;6.63;3.20;;;32.40;1.00;;;;;;10249686;28;84937;-52
2022/06/18 16:52:00;;;;;;;7.78;3.80;;;32.20;1.00;;;;;;10249220;28;84025;-49
2022/06/18 16:57:21;;;;;;;6.78;3.83;;;32.20;1.00;;;;;;10208655;28;84102;-47
2022/06/18 17:02:23;;;;;;;5.28;3.60;;;31.90;1.00;;;;;;10209550;28;84189;-52
2022/06/18 17:07:26;;;;;;;6.27;3.83;;;31.60;1.00;;;;;;10208336;28;84923;-51
2022/06/18 17:12:27;;;;;;;6.30;3.95;;;31.30;1.00;;;;;;10208575;28;84904;-51
2022/06/18 17:17:27;;;;;;;7.10;3.42;;;31.00;1.00;;;;;;10208775;28;84576;-53
2022/06/18 17:22:28;;;;;;;6.95;4.20;;;30.60;1.00;;;;;;10208694;28;84714;-50
2022/06/18 17:32:48;;;;;;;;;;;30.40;99.90;;;;;;10229631;28;86103;-53
2022/06/18 17:37:49;;;;;;;5.40;4.00;;;30.30;99.90;;;;;;10239321;28;90428;-56
2022/06/18 17:42:52;;;;;;;6.70;3.70;;;30.10;1.00;;;;;;10231635;28;84238;-54
2022/06/18 17:47:53;;;;;;;;;;;30.00;1.00;;;;;;10243941;28;84823;-50
2022/06/18 17:52:54;;;;;;;7.00;4.40;;;29.80;1.00;;;;;;10247405;28;85385;-50
2022/06/18 17:57:54;;;;;;;;;;;29.70;1.00;;;;;;10226120;28;84880;-56
2022/06/18 18:02:55;;;;;;;;;;;29.50;99.90;;;;;;10211344;28;86823;-53
2022/06/18 18:07:55;;;;;;;;;;;29.40;99.90;;;;;;10238478;28;84910;-55
2022/06/18 18:12:56;;;;;;;;;;;29.40;99.90;;;;;;10229256;28;84970;-54
2022/06/18 18:17:57;;;;;;;;;;;29.30;99.90;;;;;;10222289;28;84952;-53
2022/06/18 18:22:57;;;;;;;;;;;29.10;99.90;;;;;;10248897;28;84192;-56
2022/06/18 18:27:58;;;;;;;;;;;29.00;1.00;;;;;;10252584;28;85046;-53
2022/06/18 18:32:59;;;;;;;;;;;28.80;1.00;;;;;;10237174;28;87352;-55
2022/06/18 18:37:59;;;;;;;;;;;28.70;99.90;;;;;;10246969;28;84302;-56
2022/06/18 18:43:01;;;;;;;;;;;28.60;1.00;;;;;;10258456;28;84420;-52
2022/06/18 18:48:01;;;;;;;;;;;28.50;58.90;;;;;;10245031;28;84970;-51
2022/06/18 18:53:02;;;;;;;;;;;28.30;1.00;;;;;;10252184;28;84318;-53
2022/06/18 18:58:03;;;;;;;;;;;28.10;1.00;;;;;;10271544;28;85791;-53
2022/06/18 19:03:04;;;;;;;;;;;28.00;1.00;;;;;;10267954;28;84838;-49
2022/06/18 19:08:05;;;;;;;;;;;27.80;1.00;;;;;;10270164;28;84264;-50
2022/06/18 19:13:07;;;;;;;;;;;27.60;27.40;;;;;;10265895;28;84700;-49
2022/06/18 19:18:10;;;;;;;;;;;27.30;1.00;;;;;;10270893;28;85039;-54
2022/06/18 19:23:11;;;;;;;;;;;27.20;99.90;;;;;;10261951;28;85073;-54
2022/06/18 19:28:31;;;;;;;;;;;27.00;1.00;;;;;;10249746;28;84321;-50
2022/06/18 19:33:32;;;;;;;;;;;26.90;1.00;;;;;;10260480;28;84997;-47
2022/06/18 19:38:33;;;;;;;;;;;26.70;35.10;;;;;;10254552;28;84789;-45
2022/06/18 19:43:34;;;;;;;;;;;26.70;99.90;;;;;;10265140;28;84327;-46
2022/06/18 19:48:38;;;;;;;;;;;26.60;1.00;;;;;;10247160;28;84991;-50
2022/06/18 19:53:43;;;;;;;;;;;26.50;1.00;;;;;;10268951;28;85070;-48
2022/06/18 19:58:47;;;;;;;;;;;26.40;1.00;;;;;;10249860;28;84092;-51
2022/06/18 20:03:49;;;;;;;;;;;26.40;1.00;;;;;;10251979;28;84284;-53
2022/06/18 20:08:49;;;;;;;;;;;26.20;99.90;;;;;;10238285;28;85245;-51
2022/06/18 20:13:50;;;;;;;;;;;26.10;99.90;;;;;;10247223;28;84854;-52
2022/06/18 20:18:50;;;;;;;;;;;26.00;99.90;;;;;;10260305;28;84975;-50
2022/06/18 20:23:51;;;;;;;;;;;25.90;99.90;;;;;;10261650;28;85081;-56
2022/06/18 20:28:52;;;;;;;;;;;25.80;1.00;;;;;;10243521;28;85890;-54
2022/06/18 20:33:52;;;;;;;;;;;25.70;1.00;;;;;;10268759;28;84619;-50
2022/06/18 20:38:53;;;;;;;;;;;25.50;1.00;;;;;;10262747;28;84146;-54
2022/06/18 20:43:56;;;;;;;;;;;25.30;1.00;;;;;;10269380;28;84910;-50
2022/06/18 20:48:58;;;;;;;;;;;25.30;1.00;;;;;;10239396;28;87539;-51
2022/06/18 20:59:19;;;;;;;;;;;25.00;99.90;;;;;;10222194;28;84170;-54
2022/06/18 21:04:20;;;;;;;;;;;24.90;99.90;;;;;;10242790;28;84942;-52
2022/06/18 21:09:20;;;;;;;;;;;24.70;99.90;;;;;;10232627;28;84263;-51
2022/06/18 21:14:21;;;;;;;;;;;24.60;99.90;;;;;;10215687;28;86156;-51
2022/06/18 21:19:21;;;;;;;;;;;24.40;99.90;;;;;;10242976;28;84813;-51
2022/06/18 21:24:33;;;;;;;;;;;24.30;99.90;;;;;;10243106;28;85030;-52
2022/06/18 21:29:33;;;;;;;;;;;24.20;99.90;;;;;;10242716;28;85319;-54
2022/06/18 21:39:55;;;;;;;;;;;24.00;1.00;;;;;;10247093;28;84270;-51
2022/06/18 21:44:57;;;;;;;;;;;23.90;1.00;;;;;;10245238;28;84259;-55
2022/06/18 21:49:58;;;;;;;;;;;23.70;1.00;;;;;;10245143;28;84926;-53
2022/06/18 21:54:58;;;;;;;;;;;23.60;1.00;;;;;;10243098;28;84747;-49
2022/06/18 22:00:04;;;;;;;;;;;23.30;1.00;;;;;;10241974;28;84202;-51
2022/06/18 22:05:07;;;;;;;;;;;23.20;1.00;;;;;;10243402;28;85150;-56
2022/06/18 22:10:08;;;;;;;;;;;23.00;1.00;;;;;;10246590;28;84305;-53
2022/06/18 22:20:28;;;;;;;;;;;22.80;1.00;;;;;;10239160;28;84951;-51
2022/06/18 22:25:29;;;;;;;;;;;22.60;1.00;;;;;;10243559;28;84638;-52
2022/06/18 22:30:30;;;;;;;;;;;22.40;1.00;;;;;;10244006;28;85387;-50
2022/06/18 22:35:31;;;;;;;;;;;22.30;1.00;;;;;;10242892;28;84179;-55
2022/06/18 22:40:32;;;;;;;;;;;22.20;1.00;;;;;;10245581;28;85196;-49
2022/06/18 22:45:33;;;;;;;;;;;22.00;1.00;;;;;;10244731;28;84174;-52
2022/06/18 22:50:33;;;;;;;;;;;21.90;1.00;;;;;;10244044;28;84823;-51
2022/06/18 22:55:34;;;;;;;;;;;21.90;1.00;;;;;;10234516;28;84896;-51
2022/06/18 23:00:34;;;;;;;;;;;21.80;1.00;;;;;;10236790;28;84950;-51
2022/06/18 23:05:36;;;;;;;;;;;21.70;1.00;;;;;;10243219;28;85214;-51
2022/06/18 23:10:38;;;;;;;;;;;21.60;1.00;;;;;;10227860;28;84186;-52
2022/06/18 23:15:40;;;;;;;;;;;21.50;1.00;;;;;;10242690;28;84114;-54
2022/06/18 23:20:40;;;;;;;;;;;21.40;1.00;;;;;;10243172;28;84711;-53
2022/06/18 23:25:41;;;;;;;;;;;21.30;1.00;;;;;;10253358;28;85957;-55
2022/06/18 23:30:41;;;;;;;;;;;21.20;1.00;;;;;;10242492;28;84222;-51
2022/06/18 23:35:43;;;;;;;;;;;21.10;1.00;;;;;;10244470;28;84765;-51
2022/06/18 23:40:44;;;;;;;;;;;21.00;1.00;;;;;;10248981;28;84948;-55
2022/06/18 23:45:47;;;;;;;;;;;21.10;1.00;;;;;;10236301;28;87229;-54
2022/06/18 23:50:48;;;;;;;;;;;21.00;1.00;;;;;;10252876;28;85002;-56
2022/06/18 23:55:50;;;;;;;;;;;20.90;1.00;;;;;;10249630;28;84339;-54
